createdAt,value
2023-02-12T00:01:53.780Z,100494.72
2023-02-12T00:06:56.617Z,100491.28
2023-02-12T00:11:59.482Z,100486.88
2023-02-12T00:17:03.720Z,100492.16
2023-02-12T00:22:06.529Z,100494.91
2023-02-12T00:27:09.297Z,100492.34
2023-02-12T00:32:14.234Z,100485.47
2023-02-12T00:37:17.444Z,100495.16
2023-02-12T00:42:20.235Z,100484.59
2023-02-12T00:47:24.356Z,100487.28
2023-02-12T00:52:27.148Z,100494.41
2023-02-12T00:57:29.915Z,100489.16
2023-02-12T01:02:34.101Z,100486.69
2023-02-12T01:07:38.546Z,100480.50
2023-02-12T01:12:41.431Z,100495.50
2023-02-12T01:17:46.040Z,100495.50
2023-02-12T01:22:49.285Z,100487.56
2023-02-12T01:27:54.723Z,100483.97
2023-02-12T01:33:00.608Z,100496.25
2023-02-12T01:38:03.338Z,100494.34
2023-02-12T01:43:08.013Z,100481.13
2023-02-12T01:48:12.484Z,100473.09
2023-02-12T01:53:20.202Z,100468.69
2023-02-12T01:58:25.124Z,100481.00
2023-02-12T02:03:29.402Z,100480.91
2023-02-12T02:08:32.497Z,100482.59
2023-02-12T02:14:01.366Z,100476.28
2023-02-12T02:19:14.694Z,100473.59
2023-02-12T02:24:44.656Z,100467.38
2023-02-12T02:30:14.221Z,100468.16
2023-02-12T02:35:25.566Z,100461.97
2023-02-12T02:40:36.493Z,100461.88
2023-02-12T02:45:42.857Z,100457.47
2023-02-12T02:50:52.695Z,100455.63
2023-02-12T02:56:00.142Z,100463.56
2023-02-12T03:01:07.037Z,100462.75
2023-02-12T03:06:19.214Z,100458.31
2023-02-12T03:11:26.416Z,100467.16
2023-02-12T03:16:32.615Z,100457.50
2023-02-12T03:21:41.088Z,100461.78
2023-02-12T03:26:48.323Z,100460.03
2023-02-12T03:32:03.573Z,100459.13
2023-02-12T03:37:11.986Z,100458.22
2023-02-12T03:42:19.589Z,100455.53
2023-02-12T03:47:26.843Z,100462.56
2023-02-12T03:52:31.401Z,100464.22
2023-02-12T03:57:40.413Z,100464.09
2023-02-12T04:02:43.818Z,100468.41
2023-02-12T04:07:48.260Z,100471.06
2023-02-12T04:12:55.957Z,100479.81
2023-02-12T04:18:08.346Z,100474.44
2023-02-12T04:23:22.372Z,100477.97
2023-02-12T04:28:37.139Z,100476.25
2023-02-12T04:33:48.366Z,100483.25
2023-02-12T04:38:55.417Z,100493.78
2023-02-12T04:43:58.248Z,100502.25
2023-02-12T04:49:01.079Z,100496.34
2023-02-12T04:54:05.610Z,100500.81
2023-02-12T04:59:09.337Z,100499.06
2023-02-12T05:04:14.480Z,100498.19
2023-02-12T05:09:20.582Z,100496.47
2023-02-12T05:14:25.594Z,100493.78
2023-02-12T05:19:28.336Z,100497.34
2023-02-12T05:24:32.509Z,100499.16
2023-02-12T05:29:35.277Z,100499.16
2023-02-12T05:34:38.423Z,100515.06
2023-02-12T05:39:42.673Z,100513.31
2023-02-12T05:44:45.399Z,100510.56
2023-02-12T05:49:48.235Z,100513.22
2023-02-12T05:54:52.342Z,100515.78
2023-02-12T05:59:55.376Z,100525.41
2023-02-12T06:04:58.147Z,100526.25
2023-02-12T06:10:02.405Z,100524.50
2023-02-12T06:15:05.523Z,100529.09
2023-02-12T06:20:08.718Z,100520.53
2023-02-12T06:25:12.959Z,100530.25
2023-02-12T06:30:16.552Z,100533.84
2023-02-12T06:35:19.412Z,100532.00
2023-02-12T06:40:23.598Z,100533.81
2023-02-12T06:45:26.488Z,100535.59
2023-02-12T06:50:29.481Z,100549.69
2023-02-12T06:55:33.640Z,100548.78
2023-02-12T07:00:36.632Z,100545.28
2023-02-12T07:05:40.536Z,100555.78
2023-02-12T07:10:49.651Z,100553.13
2023-02-12T07:15:52.505Z,100566.25
2023-02-12T07:20:57.425Z,100563.50
2023-02-12T07:26:04.096Z,100562.38
2023-02-12T07:31:11.447Z,100568.22
2023-02-12T07:36:16.922Z,100568.78
2023-02-12T07:41:23.141Z,100570.44
2023-02-12T07:46:29.783Z,100573.00
2023-02-12T07:51:33.777Z,100574.91
2023-02-12T07:56:39.890Z,100571.72
2023-02-12T08:01:44.377Z,100584.97
2023-02-12T08:06:48.930Z,100576.59
2023-02-12T08:11:53.710Z,100581.03
2023-02-12T08:16:56.621Z,100576.28
2023-02-12T08:21:59.404Z,100575.06
2023-02-12T08:27:03.526Z,100579.84
2023-02-12T08:32:10.731Z,100574.13
2023-02-12T08:37:13.575Z,100577.38
2023-02-12T08:42:17.620Z,100589.00
2023-02-12T08:47:20.381Z,100587.97
2023-02-12T08:52:23.076Z,100593.16
2023-02-12T08:57:27.286Z,100585.56
2023-02-12T09:02:30.294Z,100605.84
2023-02-12T09:07:33.148Z,100598.72
2023-02-12T09:12:37.257Z,100599.41
2023-02-12T09:17:41.733Z,100606.56
2023-02-12T09:22:44.709Z,100599.16
2023-02-12T09:27:48.908Z,100607.00
2023-02-12T09:32:51.614Z,100605.38
2023-02-12T09:37:54.543Z,100610.03
2023-02-12T09:43:07.670Z,100601.00
2023-02-12T09:48:29.407Z,100608.94
2023-02-12T09:53:33.937Z,100609.59
2023-02-12T09:58:43.605Z,100606.53
2023-02-12T10:03:47.341Z,100605.66
2023-02-12T10:09:02.542Z,100608.72
2023-02-12T10:14:22.748Z,100612.25
2023-02-12T10:19:40.953Z,100614.47
2023-02-12T10:24:53.637Z,100611.41
2023-02-12T10:29:59.626Z,100608.78
2023-02-12T10:35:13.381Z,100606.25
2023-02-12T10:40:20.836Z,100615.63
2023-02-12T10:45:27.662Z,100609.63
2023-02-12T10:50:42.703Z,100604.06
2023-02-12T10:55:45.552Z,100596.13
2023-02-12T11:00:58.100Z,100598.41
2023-02-12T11:06:14.001Z,100590.94
2023-02-12T11:11:21.377Z,100588.88
2023-02-12T11:16:34.035Z,100579.09
2023-02-12T11:21:37.454Z,100577.72
2023-02-12T11:26:40.320Z,100567.75
2023-02-12T11:32:00.204Z,100556.28
2023-02-12T11:37:03.199Z,100556.28
2023-02-12T11:42:15.327Z,100554.78
2023-02-12T11:47:22.192Z,100553.25
2023-02-12T11:52:28.032Z,100553.78
2023-02-12T11:57:38.730Z,100547.03
2023-02-12T12:02:48.701Z,100542.09
2023-02-12T12:07:56.850Z,100536.97
2023-02-12T12:13:05.191Z,100529.81
2023-02-12T12:18:39.536Z,100533.97
2023-02-12T12:23:47.439Z,100530.91
2023-02-12T12:28:56.205Z,100524.47
2023-02-12T12:34:06.655Z,100522.06
2023-02-12T12:39:19.638Z,100519.78
2023-02-12T12:44:33.080Z,100517.78
2023-02-12T12:49:56.144Z,100509.63
2023-02-12T12:55:21.646Z,100508.31
2023-02-12T13:00:46.122Z,100509.09
2023-02-12T13:05:59.690Z,100505.13
2023-02-12T13:11:11.363Z,100491.63
2023-02-12T13:16:22.703Z,100488.91
2023-02-12T13:21:37.348Z,100494.56
2023-02-12T13:26:49.622Z,100492.81
2023-02-12T13:31:56.329Z,100478.97
2023-02-12T13:37:02.151Z,100472.72
2023-02-12T13:42:20.822Z,100469.81
2023-02-12T13:47:38.237Z,100466.41
2023-02-12T13:52:50.500Z,100473.03
2023-02-12T13:58:30.917Z,100465.09
2023-02-12T14:03:35.967Z,100467.19
2023-02-12T14:08:42.607Z,100462.03
2023-02-12T14:13:53.473Z,100465.41
2023-02-12T14:19:41.816Z,100458.47
2023-02-12T14:24:51.827Z,100455.19
2023-02-12T14:30:30.001Z,100453.38
2023-02-12T14:35:34.785Z,100456.19
2023-02-12T14:40:47.034Z,100448.50
2023-02-12T14:45:50.238Z,100450.38
2023-02-12T14:50:53.447Z,100460.63
2023-02-12T14:55:59.445Z,100456.06
2023-02-12T15:01:04.244Z,100459.28
2023-02-12T15:06:14.440Z,100459.34
2023-02-12T15:11:34.963Z,100452.16
2023-02-12T15:16:48.064Z,100465.16
2023-02-12T15:21:54.429Z,100450.28
2023-02-12T15:27:01.102Z,100456.56
2023-02-12T15:32:07.563Z,100452.66
2023-02-12T15:37:10.780Z,100438.38
2023-02-12T15:42:31.855Z,100444.97
2023-02-12T15:47:35.885Z,100448.94
2023-02-12T15:52:47.765Z,100438.81
2023-02-12T15:57:53.380Z,100431.38
2023-02-12T16:02:56.230Z,100432.03
2023-02-12T16:07:59.895Z,100435.91
2023-02-12T16:13:05.040Z,100428.84
2023-02-12T16:18:08.193Z,100430.81
2023-02-12T16:23:13.566Z,100434.03
2023-02-12T16:28:22.890Z,100439.34
2023-02-12T16:33:36.255Z,100437.81
2023-02-12T16:38:43.557Z,100444.25
2023-02-12T16:43:48.908Z,100441.81
2023-02-12T16:48:54.088Z,100444.63
2023-02-12T16:53:58.521Z,100453.75
2023-02-12T16:59:03.597Z,100456.63
2023-02-12T17:04:09.295Z,100459.19
2023-02-12T17:09:13.276Z,100454.91
2023-02-12T17:14:19.288Z,100459.47
2023-02-12T17:19:22.889Z,100461.28
2023-02-12T17:24:27.867Z,100464.97
2023-02-12T17:29:32.061Z,100464.16
2023-02-12T17:34:48.012Z,100467.75
2023-02-12T17:39:51.866Z,100474.19
2023-02-12T17:44:55.993Z,100471.69
2023-02-12T17:50:00.789Z,100475.25
2023-02-12T17:55:04.677Z,100480.63
2023-02-12T18:00:11.764Z,100479.81
2023-02-12T18:05:16.777Z,100478.00
2023-02-12T18:10:19.527Z,100481.81
2023-02-12T18:15:23.665Z,100494.16
2023-02-12T18:20:26.609Z,100487.72
2023-02-12T18:25:29.436Z,100485.94
2023-02-12T18:30:33.672Z,100481.72
2023-02-12T18:35:36.832Z,100477.47
2023-02-12T18:40:40.885Z,100480.06
2023-02-12T18:45:45.025Z,100490.81
2023-02-12T18:50:51.566Z,100488.16
2023-02-12T18:55:54.406Z,100482.38
2023-02-12T19:00:58.833Z,100485.28
2023-02-12T19:06:04.512Z,100493.91
2023-02-12T19:11:08.561Z,100485.63
2023-02-12T19:16:14.819Z,100491.06
2023-02-12T19:21:18.765Z,100490.13
2023-02-12T19:26:22.169Z,100493.97
2023-02-12T19:31:28.121Z,100485.81
2023-02-12T19:36:33.531Z,100481.81
2023-02-12T19:41:40.765Z,100482.78
2023-02-12T19:46:45.845Z,100481.81
2023-02-12T19:51:49.058Z,100478.41
2023-02-12T19:56:52.728Z,100485.50
2023-02-12T20:01:57.239Z,100470.50
2023-02-12T20:06:59.990Z,100471.50
2023-02-12T20:12:03.466Z,100473.34
2023-02-12T20:17:07.557Z,100480.44
2023-02-12T20:22:10.713Z,100473.34
2023-02-12T20:27:14.029Z,100478.91
2023-02-12T20:32:18.100Z,100483.34
2023-02-12T20:37:20.907Z,100480.63
2023-02-12T20:42:23.698Z,100481.69
2023-02-12T20:47:29.356Z,100478.03
2023-02-12T20:52:32.235Z,100479.91
2023-02-12T20:57:35.078Z,100488.75
2023-02-12T21:02:39.242Z,100487.03
2023-02-12T21:07:42.249Z,100487.88
2023-02-12T21:12:45.023Z,100488.91
2023-02-12T21:17:49.212Z,100495.09
2023-02-12T21:22:51.962Z,100490.78
2023-02-12T21:27:54.642Z,100492.38
2023-02-12T21:32:59.097Z,100495.91
2023-02-12T21:38:01.808Z,100500.44
2023-02-12T21:43:04.574Z,100499.72
2023-02-12T21:48:09.147Z,100497.19
2023-02-12T21:53:11.851Z,100491.78
2023-02-12T21:58:14.930Z,100498.03
2023-02-12T22:03:19.232Z,100501.69
2023-02-12T22:08:22.055Z,100500.94
2023-02-12T22:13:24.921Z,100490.38
2023-02-12T22:18:29.128Z,100491.41
2023-02-12T22:23:31.907Z,100501.31
2023-02-12T22:28:35.386Z,100493.25
2023-02-12T22:33:39.567Z,100497.72
2023-02-12T22:38:42.943Z,100495.09
2023-02-12T22:43:46.065Z,100486.34
2023-02-12T22:48:50.266Z,100493.50
2023-02-12T22:53:53.342Z,100492.84
2023-02-12T22:58:57.785Z,100499.84
2023-02-12T23:04:02.350Z,100501.59
2023-02-12T23:09:06.426Z,100507.03
2023-02-12T23:14:09.248Z,100503.44
2023-02-12T23:19:14.077Z,100514.25
2023-02-12T23:24:17.335Z,100509.84
2023-02-12T23:29:20.190Z,100519.53
2023-02-12T23:34:24.301Z,100510.00
2023-02-12T23:39:27.194Z,100512.63
2023-02-12T23:44:29.989Z,100500.22
2023-02-12T23:49:35.185Z,100496.91
2023-02-12T23:54:38.034Z,100489.16
2023-02-12T23:59:40.823Z,100487.25
